Otley, Iowa
Current Conditions -  °F | °C
As of 6:15 AM on Thursday 23 Oct 2014 (Local Time) from KPEA Reporting Station
Scattered Clouds Scattered Clouds  
Wind Chill: 50°   Ceiling: Unl
Heat Index: 50°   Visibility: 10mi
Dew Point: 46°   Wind: 6mph
Humidity: 84%   Direction: 140°SE
Pressure: 30.07"   Gusts: NA
Location:  41.46°N, 93.04°W
Report Text: KPEA 231115Z AUTO 14005KT 10SM SCT070 SCT080 10/08 A3007 RMK AO2 T01010075
Loading
Personal Weather Stations






























Interactive Weather Map
Tropical Storm Tracking
New forecast layout! Learn more

10-Day Weather Forecast

Advertisements
Track Severe Weather on mobile